Mon, Apr 21, 2014, 11:54 AM EDT - U.S. Markets close in 4 hrs 6 mins

Recent

% | $
Quotes you view appear here for quick access.

Iona Energy Inc. Message Board

  • smarter_of_moron_idiot_imbecile smarter_of_moron_idiot_imbecile Jul 20, 2013 3:23 AM Flag

    Anneleen Knutsen now lifting 200,000 barrels from the FPSO

    Typed in "Anneleen Knutsen" on the marine tracker site, and there it is at the FPSO. "Fill er up with light sweet buddy" her Captain Delmont was heard to say.

    The position history:
    "'ANNELEEN KNUTSEN' Vessel's Position History: 181 Records Found (Records 1-50)
    MMSI Speed Latitude / Longitude Course Timestamp
    257983000 0.1 57.60893 1.636208 275 2013-07-20 06:59
    257983000 0.2 57.60897 1.637377 37 2013-07-20 06:46
    257983000 4 57.60695 1.637192 359 2013-07-20 06:43
    257983000 5.1 57.60343 1.637588 354 2013-07-20 06:40
    257983000 5.2 57.60036 1.638112 354 2013-07-20 06:38
    257983000 5.2 57.59503 1.639208 351 2013-07-20 06:34
    257983000 5.2 57.59153 1.640455 348 2013-07-20 06:32
    257983000 5.3 57.58844 1.641613 349 2013-07-20 06:29
    257983000 5.4 57.58359 1.643208 349 2013-07-20 06:26
    257983000 5.7 57.58029 1.64426 350 2013-07-20 06:24
    257983000 5.5 57.57543 1.646338 343 2013-07-20 06:21
    257983000 4.8 57.57031 1.65024 324 2013-07-20 06:17
    257983000 3.9 57.56851 1.653312 317 2013-07-20 06:15
    257983000 3.1 57.56681 1.655613 333 2013-07-20 06:13
    257983000 2.7 57.56483 1.656965 334 2013-07-20 06:10
    257983000 3.3 57.56365 1.658503 318 2013-07-20 06:08
    257983000 4.8 57.56163 1.661623 322 2013-07-20 06:06
    257983000 6.8 57.55728 1.668107 320 2013-07-20 06:03
    257983000 7.2 57.55449 1.672487 319 2013-07-20 06:01
    "

    Now we have the exact latitude and longitude of the FPSO, its 57.60893 lat 1.636208 long.

    Couldn't track to what port she'll be heading to with the 200,000 barrel cargo.

    SortNewest  |  Oldest  |  Most Replied Expand all replies
 
IONAF
0.463+0.006(+1.38%)11:17 AMEDT

Trending Tickers

i
Trending Tickers features significant U.S. stocks showing the most dramatic increase in user interest in Yahoo Finance in the previous hour over historic norms. The list is limited to those equities which trade at least 100,000 shares on an average day and have a market cap of more than $300 million.